Time;durP1;ratioP1;P1;durP2;ratioP2;P2;SDS_P1;SDS_P2;PMS_P1;PMS_P2;Temp;Humidity;BMP_temperature;BMP_pressure;BME280_temperature;BME280_humidity;BME280_pressure;Samples;Min_cycle;Max_cycle;Signal;HPM_P1;HPM_P2
2022/07/06 00:01:52;;;;;;;4.13;2.38;;;16.90;99.90;;;;;;4972339;28;20558;-82
2022/07/06 00:04:24;;;;;;;2.40;2.20;;;16.70;99.90;;;;;;4976426;28;20698;-82
2022/07/06 00:06:55;;;;;;;3.90;2.00;;;16.70;99.90;;;;;;4997187;28;20199;-82
2022/07/06 00:09:25;;;;;;;2.80;2.13;;;16.80;99.90;;;;;;4990039;28;20217;-82
2022/07/06 00:12:07;;;;;;;2.60;2.13;;;16.90;99.90;;;;;;4983294;28;20197;-82
2022/07/06 00:14:59;;;;;;;3.22;2.05;;;16.90;99.90;;;;;;4994400;28;20561;-82
2022/07/06 00:17:26;;;;;;;4.13;2.38;;;16.80;99.90;;;;;;4983184;28;20205;-82
2022/07/06 00:19:54;;;;;;;3.50;2.40;;;16.70;99.90;;;;;;4977000;28;20221;-82
2022/07/06 00:22:22;;;;;;;4.15;2.40;;;16.60;99.90;;;;;;4974666;28;20197;-82
2022/07/06 00:24:50;;;;;;;4.22;2.47;;;16.60;99.90;;;;;;4988968;28;20225;-82
2022/07/06 00:27:22;;;;;;;3.58;2.20;;;16.70;99.90;;;;;;4976808;28;20240;-82
2022/07/06 00:29:57;;;;;;;4.30;2.47;;;16.50;99.90;;;;;;4994359;28;20235;-81
2022/07/06 00:32:39;;;;;;;2.97;2.13;;;16.60;99.90;;;;;;4978210;28;20200;-82
2022/07/06 00:35:19;;;;;;;2.38;1.90;;;16.60;99.90;;;;;;4983154;28;20189;-82
2022/07/06 00:38:06;;;;;;;6.78;2.33;;;16.50;99.90;;;;;;4972907;28;20220;-81
2022/07/06 00:40:55;;;;;;;2.80;2.10;;;16.40;99.90;;;;;;4986481;28;20201;-82
2022/07/06 00:43:27;;;;;;;3.88;2.17;;;16.30;99.90;;;;;;4979528;28;20201;-81
2022/07/06 00:46:07;;;;;;;2.88;1.55;;;16.40;99.90;;;;;;4980740;28;20224;-81
2022/07/06 00:49:06;;;;;;;2.65;2.35;;;16.30;99.90;;;;;;4979263;28;20624;-82
2022/07/06 00:52:24;;;;;;;3.50;2.10;;;16.30;99.90;;;;;;4975479;28;20204;-81
2022/07/06 00:54:58;;;;;;;4.47;2.13;;;16.30;99.90;;;;;;4975476;28;20201;-82
2022/07/06 00:57:34;;;;;;;4.53;2.20;;;16.20;99.90;;;;;;4991254;28;20212;-82
2022/07/06 01:00:19;;;;;;;4.90;2.08;;;16.10;99.90;;;;;;4974839;28;20206;-82
2022/07/06 01:03:06;;;;;;;2.28;1.92;;;16.20;99.90;;;;;;4987114;28;20202;-82
2022/07/06 01:06:05;;;;;;;3.70;2.10;;;16.20;99.90;;;;;;4978222;28;20239;-82
2022/07/06 01:08:49;;;;;;;2.47;1.80;;;16.40;99.90;;;;;;4986585;28;20228;-82
2022/07/06 01:11:20;;;;;;;3.08;1.90;;;16.30;99.90;;;;;;4989570;28;20213;-81
2022/07/06 01:13:48;;;;;;;3.67;2.00;;;16.40;99.90;;;;;;4987681;28;20581;-82
2022/07/06 01:16:47;;;;;;;4.75;1.83;;;16.50;99.90;;;;;;4969528;28;20204;-82
2022/07/06 01:19:46;;;;;;;2.92;1.90;;;16.60;99.90;;;;;;4991503;28;20228;-82
2022/07/06 01:22:39;;;;;;;4.72;2.00;;;16.40;99.90;;;;;;4973133;28;20211;-82
2022/07/06 01:25:10;;;;;;;3.78;1.75;;;16.50;99.90;;;;;;4975185;28;20600;-82
2022/07/06 01:27:55;;;;;;;2.30;2.10;;;16.40;99.90;;;;;;4973218;28;20212;-82
2022/07/06 01:30:30;;;;;;;4.55;2.08;;;16.50;99.90;;;;;;4988065;28;20680;-82
2022/07/06 01:33:00;;;;;;;2.38;2.17;;;16.40;99.90;;;;;;4978083;28;20212;-82
2022/07/06 01:35:53;;;;;;;3.17;1.63;;;16.40;99.90;;;;;;4971648;28;20208;-81
2022/07/06 01:38:51;;;;;;;3.13;1.73;;;16.40;99.90;;;;;;4990244;28;20687;-81
2022/07/06 01:41:23;;;;;;;2.97;1.50;;;16.30;99.90;;;;;;4985077;28;20201;-82
2022/07/06 01:43:53;;;;;;;3.13;1.48;;;16.40;99.90;;;;;;4978843;28;20209;-81
2022/07/06 01:46:27;;;;;;;5.63;1.45;;;16.30;99.90;;;;;;4971159;28;20216;-82
2022/07/06 01:49:09;;;;;;;4.40;1.45;;;16.20;99.90;;;;;;4973221;28;20723;-81
2022/07/06 01:54:40;;;;;;;2.45;1.45;;;16.20;99.90;;;;;;4988069;28;20217;-81
2022/07/06 01:57:20;;;;;;;1.92;1.60;;;16.20;99.90;;;;;;4980858;28;20674;-81
2022/07/06 01:59:55;;;;;;;2.90;1.98;;;16.20;99.90;;;;;;4991558;28;20615;-81
2022/07/06 02:02:39;;;;;;;2.47;1.92;;;16.20;99.90;;;;;;4992169;28;20211;-81
2022/07/06 02:05:11;;;;;;;1.95;1.55;;;16.20;99.90;;;;;;4979494;28;20680;-81
2022/07/06 02:07:50;;;;;;;3.65;1.60;;;16.00;99.90;;;;;;4981185;28;20216;-82
2022/07/06 02:10:18;;;;;;;1.85;1.75;;;16.20;99.90;;;;;;4994243;28;20206;-82
2022/07/06 02:12:47;;;;;;;3.10;2.03;;;16.10;99.90;;;;;;4974779;28;20216;-81
2022/07/06 02:15:15;;;;;;;3.63;2.17;;;16.00;99.90;;;;;;4980277;28;20204;-82
2022/07/06 02:17:43;;;;;;;3.67;1.90;;;16.10;99.90;;;;;;4976148;28;20202;-82
2022/07/06 02:20:13;;;;;;;5.40;1.90;;;15.90;99.90;;;;;;4992381;28;20206;-82
2022/07/06 02:22:41;;;;;;;2.72;1.65;;;15.60;99.90;;;;;;4983177;28;20205;-82
2022/07/06 02:25:09;;;;;;;4.53;2.25;;;15.80;99.90;;;;;;4996790;28;20596;-81
2022/07/06 02:27:39;;;;;;;2.28;1.90;;;15.70;99.90;;;;;;4980017;28;20206;-81
2022/07/06 02:30:15;;;;;;;4.40;2.05;;;15.50;99.90;;;;;;4980253;28;20197;-82
2022/07/06 02:32:48;;;;;;;3.83;1.85;;;15.40;99.90;;;;;;4981206;28;20205;-81
2022/07/06 02:35:18;;;;;;;3.55;1.77;;;15.10;99.90;;;;;;4967150;28;20208;-81
2022/07/06 02:37:45;;;;;;;3.28;1.90;;;15.20;99.90;;;;;;4975903;28;20213;-81
2022/07/06 02:40:16;;;;;;;2.70;1.98;;;15.20;99.90;;;;;;4992616;28;20205;-81
2022/07/06 02:42:44;;;;;;;3.30;1.95;;;15.10;99.90;;;;;;4988344;28;20209;-82
2022/07/06 02:45:14;;;;;;;3.03;2.05;;;15.20;99.90;;;;;;5008969;28;20217;-81
2022/07/06 02:47:42;;;;;;;2.30;2.10;;;15.00;99.90;;;;;;4999520;28;20212;-81
2022/07/06 02:50:10;;;;;;;3.03;2.03;;;15.00;99.90;;;;;;5008602;28;20206;-82
2022/07/06 02:52:44;;;;;;;2.45;2.00;;;15.00;99.90;;;;;;5000479;28;20198;-81
2022/07/06 02:55:12;;;;;;;3.25;2.08;;;14.90;99.90;;;;;;4989903;28;20202;-81
2022/07/06 02:57:46;;;;;;;2.53;2.08;;;15.10;99.90;;;;;;4979073;28;20648;-81
2022/07/06 03:00:21;;;;;;;4.55;2.00;;;15.10;99.90;;;;;;4972340;28;20198;-82
2022/07/06 03:02:49;;;;;;;3.88;2.40;;;14.80;99.90;;;;;;4981253;28;20220;-82
2022/07/06 03:05:20;;;;;;;3.05;2.08;;;14.80;99.90;;;;;;4972128;28;20221;-82
2022/07/06 03:07:53;;;;;;;5.10;2.42;;;14.60;99.90;;;;;;4994224;28;20810;-81
2022/07/06 03:10:21;;;;;;;3.40;2.33;;;14.60;99.90;;;;;;4974986;28;20197;-82
2022/07/06 03:12:48;;;;;;;3.28;2.35;;;14.70;99.90;;;;;;4978251;28;20197;-81
2022/07/06 03:15:21;;;;;;;3.25;2.17;;;14.60;99.90;;;;;;4986656;28;20198;-81
2022/07/06 03:17:51;;;;;;;3.33;2.35;;;14.50;99.90;;;;;;4978466;28;20248;-82
2022/07/06 03:20:24;;;;;;;4.28;2.25;;;14.40;99.90;;;;;;4996692;28;20285;-82
2022/07/06 03:22:58;;;;;;;2.40;2.10;;;14.40;99.90;;;;;;4994927;28;20205;-81
2022/07/06 03:25:29;;;;;;;2.47;2.08;;;14.60;99.90;;;;;;4979896;28;20221;-81
2022/07/06 03:28:02;;;;;;;3.50;2.08;;;14.60;99.90;;;;;;4976830;28;20217;-82
2022/07/06 03:30:31;;;;;;;4.13;2.80;;;14.50;99.90;;;;;;4971820;28;20547;-81
2022/07/06 03:32:59;;;;;;;2.25;2.03;;;14.50;99.90;;;;;;4972877;28;20209;-85
2022/07/06 03:35:29;;;;;;;3.30;2.30;;;14.60;99.90;;;;;;4973246;28;20204;-86
2022/07/06 03:37:57;;;;;;;4.43;2.13;;;14.60;99.90;;;;;;4974012;28;20607;-85
2022/07/06 03:40:28;;;;;;;5.35;2.30;;;14.70;99.90;;;;;;4976554;28;20559;-85
2022/07/06 03:42:56;;;;;;;4.75;2.60;;;14.80;99.90;;;;;;4977351;28;20205;-85
2022/07/06 03:45:25;;;;;;;3.03;2.63;;;14.80;99.90;;;;;;4990327;28;20204;-85
2022/07/06 03:47:55;;;;;;;3.10;2.58;;;14.70;99.90;;;;;;4972904;28;20602;-85
2022/07/06 03:50:22;;;;;;;4.65;2.40;;;14.80;99.90;;;;;;4975596;28;20204;-85
2022/07/06 03:52:51;;;;;;;4.28;2.90;;;14.90;99.90;;;;;;4991650;28;20201;-85
2022/07/06 03:55:18;;;;;;;5.50;2.47;;;15.00;99.90;;;;;;4969483;28;20213;-85
2022/07/06 03:57:52;;;;;;;3.10;2.50;;;15.10;99.90;;;;;;4985606;28;20228;-85
2022/07/06 04:00:23;;;;;;;4.57;2.67;;;15.10;99.90;;;;;;4985620;28;20209;-86
2022/07/06 04:03:00;;;;;;;6.28;2.90;;;15.10;99.90;;;;;;4987210;28;20205;-85
2022/07/06 04:05:31;;;;;;;4.30;2.70;;;15.30;99.90;;;;;;4969456;28;20695;-85
2022/07/06 04:07:59;;;;;;;5.07;2.63;;;15.00;99.90;;;;;;4988019;28;20216;-85
2022/07/06 04:10:34;;;;;;;5.30;3.10;;;15.20;99.90;;;;;;4984977;28;20197;-85
2022/07/06 04:13:03;;;;;;;4.18;3.00;;;15.40;99.90;;;;;;4973676;28;20205;-85
2022/07/06 04:15:31;;;;;;;4.60;2.88;;;15.30;99.90;;;;;;4989160;28;20672;-85
2022/07/06 04:18:01;;;;;;;4.22;2.33;;;15.40;99.90;;;;;;4969197;28;20221;-86
2022/07/06 04:20:34;;;;;;;4.10;2.20;;;15.50;99.90;;;;;;4975552;28;20216;-85
2022/07/06 04:23:02;;;;;;;4.97;2.50;;;15.60;99.90;;;;;;4972413;28;20197;-85
2022/07/06 04:25:31;;;;;;;3.75;2.25;;;15.70;99.90;;;;;;4972912;28;20212;-85
2022/07/06 04:28:01;;;;;;;3.65;2.60;;;15.60;99.90;;;;;;4987097;28;20683;-85
2022/07/06 04:30:30;;;;;;;4.05;2.63;;;15.40;99.90;;;;;;4977138;28;20201;-85
2022/07/06 04:32:58;;;;;;;5.30;2.50;;;15.60;99.90;;;;;;4977147;28;20216;-85
2022/07/06 04:35:30;;;;;;;6.20;2.97;;;15.60;99.90;;;;;;4989432;28;20205;-85
2022/07/06 04:37:58;;;;;;;6.28;3.00;;;15.60;99.90;;;;;;4986860;28;20217;-85
2022/07/06 04:40:26;;;;;;;3.55;2.55;;;15.60;99.90;;;;;;4962964;28;20204;-86
2022/07/06 04:42:59;;;;;;;5.88;3.45;;;15.60;99.90;;;;;;4988946;28;20208;-85
2022/07/06 04:45:27;;;;;;;5.80;2.75;;;15.50;99.90;;;;;;4973764;28;20206;-85
2022/07/06 04:47:55;;;;;;;4.03;2.72;;;15.60;99.90;;;;;;4963870;28;20306;-85
2022/07/06 04:50:23;;;;;;;4.25;2.35;;;15.60;99.90;;;;;;4981551;28;20205;-85
2022/07/06 04:52:53;;;;;;;7.07;2.80;;;15.20;99.90;;;;;;4985521;28;20664;-85
2022/07/06 04:55:22;;;;;;;3.20;2.30;;;15.40;99.90;;;;;;4968519;28;20193;-85
2022/07/06 04:57:51;;;;;;;3.10;2.58;;;15.50;99.90;;;;;;4974390;28;20221;-85
2022/07/06 05:00:20;;;;;;;5.65;2.63;;;15.60;99.90;;;;;;4986882;28;20216;-85
2022/07/06 05:02:49;;;;;;;4.97;2.65;;;15.70;99.90;;;;;;4975980;28;20698;-85
2022/07/06 05:05:18;;;;;;;4.63;2.70;;;15.50;99.90;;;;;;4988088;28;20704;-86
2022/07/06 05:07:47;;;;;;;4.20;2.67;;;15.50;99.90;;;;;;4987648;28;20221;-86
2022/07/06 05:10:16;;;;;;;3.83;2.72;;;15.60;99.90;;;;;;4973959;28;20211;-85
2022/07/06 05:12:48;;;;;;;3.05;2.28;;;15.70;99.90;;;;;;4975231;28;20201;-85
2022/07/06 05:15:17;;;;;;;3.88;2.40;;;15.60;99.90;;;;;;4973222;28;20193;-85
2022/07/06 05:17:44;;;;;;;6.00;2.70;;;15.50;99.90;;;;;;4973016;28;20198;-85
2022/07/06 05:20:12;;;;;;;4.35;2.63;;;15.60;99.90;;;;;;4978391;28;20212;-86
2022/07/06 05:22:43;;;;;;;7.57;2.55;;;15.50;99.90;;;;;;4995318;28;20231;-86
2022/07/06 05:25:11;;;;;;;3.30;2.17;;;15.60;99.90;;;;;;4997006;28;20205;-86
2022/07/06 05:27:40;;;;;;;4.07;2.40;;;15.80;99.90;;;;;;4991786;28;20216;-83
2022/07/06 05:30:10;;;;;;;4.05;2.35;;;15.90;99.90;;;;;;4977749;28;20209;-87
2022/07/06 05:32:38;;;;;;;4.78;2.25;;;15.80;99.90;;;;;;4994129;28;20219;-85
2022/07/06 05:35:32;;;;;;;5.03;2.40;;;15.70;99.90;;;;;;4976306;28;20206;-85
2022/07/06 05:38:02;;;;;;;2.97;2.05;;;15.50;99.90;;;;;;4977514;28;20209;-87
2022/07/06 05:40:30;;;;;;;6.80;3.08;;;15.50;99.90;;;;;;4984846;28;20201;-86
2022/07/06 05:43:00;;;;;;;4.40;2.40;;;15.70;99.90;;;;;;4997090;28;20196;-86
2022/07/06 05:45:28;;;;;;;4.75;2.08;;;15.80;99.90;;;;;;4984484;28;20212;-87
2022/07/06 05:50:42;;;;;;;4.90;2.17;;;16.10;99.90;;;;;;5000646;28;20208;-86
2022/07/06 05:53:10;;;;;;;3.92;2.13;;;15.80;99.90;;;;;;4988991;28;20205;-87
2022/07/06 05:55:38;;;;;;;3.80;1.73;;;16.00;99.90;;;;;;4986557;28;20201;-87
2022/07/06 05:58:07;;;;;;;3.30;2.10;;;16.10;99.90;;;;;;5000731;28;20232;-89
2022/07/06 06:00:36;;;;;;;5.03;1.73;;;16.10;99.90;;;;;;4985893;28;20777;-87
2022/07/06 06:03:10;;;;;;;5.30;1.83;;;16.30;99.90;;;;;;4982899;28;20202;-84
2022/07/06 06:05:38;;;;;;;3.75;1.88;;;16.80;99.90;;;;;;5000889;28;20215;-86
2022/07/06 06:08:09;;;;;;;3.75;1.48;;;16.90;99.90;;;;;;5000873;28;20224;-87
2022/07/06 06:10:37;;;;;;;4.00;1.45;;;16.70;99.90;;;;;;4987543;28;20204;-86
2022/07/06 06:13:10;;;;;;;5.53;1.63;;;16.70;99.90;;;;;;4989512;28;20219;-86
2022/07/06 06:15:38;;;;;;;4.88;1.30;;;16.70;99.90;;;;;;4989462;28;20220;-86
2022/07/06 06:18:07;;;;;;;4.60;1.58;;;16.70;99.90;;;;;;4985628;28;20221;-86
2022/07/06 06:20:34;;;;;;;2.75;1.75;;;16.60;99.90;;;;;;5000140;28;20214;-85
2022/07/06 06:23:04;;;;;;;3.58;1.40;;;16.60;99.90;;;;;;4989462;28;20204;-84
2022/07/06 06:25:33;;;;;;;5.25;1.42;;;16.70;99.90;;;;;;4990649;28;20213;-86
2022/07/06 06:28:01;;;;;;;4.82;2.00;;;16.70;99.90;;;;;;4981955;28;20229;-85
2022/07/06 06:30:30;;;;;;;3.72;1.40;;;16.60;99.90;;;;;;4980973;28;20213;-86
2022/07/06 06:33:08;;;;;;;3.53;1.33;;;16.60;99.90;;;;;;4987965;28;20208;-85
2022/07/06 06:35:36;;;;;;;3.60;1.27;;;16.80;99.90;;;;;;4996073;28;20197;-82
2022/07/06 06:38:04;;;;;;;3.13;1.83;;;16.90;99.90;;;;;;4986086;28;20228;-84
2022/07/06 06:40:32;;;;;;;6.78;2.05;;;17.70;99.90;;;;;;4977065;28;20213;-86
2022/07/06 06:42:59;;;;;;;2.45;1.50;;;18.00;99.90;;;;;;4979073;28;20204;-83
2022/07/06 06:45:29;;;;;;;3.80;1.60;;;18.40;99.90;;;;;;4983031;28;20196;-85
2022/07/06 06:47:57;;;;;;;5.75;1.58;;;18.20;99.90;;;;;;4983107;28;20730;-86
2022/07/06 06:50:25;;;;;;;4.75;1.92;;;18.20;99.90;;;;;;4992147;28;20204;-87
2022/07/06 06:52:53;;;;;;;4.75;2.03;;;18.40;99.90;;;;;;4972940;28;20664;-87
2022/07/06 06:55:21;;;;;;;3.45;1.30;;;18.40;99.90;;;;;;4976335;28;20213;-88
2022/07/06 06:57:51;;;;;;;3.47;1.55;;;18.30;99.90;;;;;;4980894;28;20197;-84
2022/07/06 07:00:19;;;;;;;5.05;1.52;;;18.60;99.90;;;;;;4983236;28;20216;-86
2022/07/06 07:02:48;;;;;;;3.28;1.30;;;18.70;99.90;;;;;;4980903;28;20205;-86
2022/07/06 07:05:15;;;;;;;5.47;1.83;;;18.50;99.90;;;;;;4998595;28;20205;-85
2022/07/06 07:07:44;;;;;;;4.50;1.65;;;18.60;99.90;;;;;;4985309;28;20228;-86
2022/07/06 07:10:12;;;;;;;3.47;1.65;;;18.50;99.90;;;;;;4991080;28;20213;-86
2022/07/06 07:12:44;;;;;;;4.25;1.25;;;18.50;99.90;;;;;;4993597;28;20208;-86
2022/07/06 07:15:13;;;;;;;2.90;1.20;;;18.40;99.90;;;;;;4979582;28;20216;-87
2022/07/06 07:17:41;;;;;;;3.13;1.08;;;18.40;99.90;;;;;;4994315;28;20197;-87
2022/07/06 07:20:11;;;;;;;3.35;1.33;;;18.40;99.90;;;;;;4991860;28;20205;-86
2022/07/06 07:22:39;;;;;;;3.20;1.10;;;18.50;99.90;;;;;;4981824;28;20201;-87
2022/07/06 07:25:07;;;;;;;5.25;1.40;;;18.00;99.90;;;;;;4985443;28;20213;-86
2022/07/06 07:27:35;;;;;;;2.63;0.80;;;17.80;99.90;;;;;;4999392;28;20226;-86
2022/07/06 07:30:05;;;;;;;1.77;0.65;;;17.80;99.90;;;;;;4981814;28;20204;-87
2022/07/06 07:32:33;;;;;;;3.00;0.80;;;17.80;99.90;;;;;;4988401;28;20207;-88
2022/07/06 07:35:01;;;;;;;3.00;0.80;;;17.80;99.90;;;;;;5004543;28;20201;-87
2022/07/06 07:37:30;;;;;;;1.67;0.80;;;17.90;99.90;;;;;;4981383;28;20215;-87
2022/07/06 07:39:58;;;;;;;1.38;0.80;;;17.60;99.90;;;;;;4986673;28;20208;-87
2022/07/06 07:42:25;;;;;;;4.15;1.05;;;17.50;99.90;;;;;;4989549;28;20197;-86
2022/07/06 07:44:53;;;;;;;1.98;0.80;;;17.70;99.90;;;;;;4986762;28;20209;-86
2022/07/06 07:47:21;;;;;;;2.22;0.93;;;17.60;99.90;;;;;;4998010;28;20210;-87
2022/07/06 07:49:48;;;;;;;3.55;1.05;;;17.60;99.90;;;;;;4984329;28;20231;-86
2022/07/06 07:52:17;;;;;;;1.85;1.13;;;17.70;99.90;;;;;;4998049;28;20201;-88
2022/07/06 07:54:46;;;;;;;3.58;1.10;;;17.80;99.90;;;;;;4982626;28;20206;-83
2022/07/06 07:57:14;;;;;;;1.70;0.95;;;18.00;99.30;;;;;;4983948;28;20193;-87
2022/07/06 07:59:42;;;;;;;3.58;1.10;;;18.10;99.30;;;;;;4984520;28;20229;-86
2022/07/06 08:02:12;;;;;;;2.90;0.98;;;18.10;99.50;;;;;;4985091;28;20189;-85
2022/07/06 08:04:39;;;;;;;1.40;1.15;;;18.00;98.90;;;;;;4981592;28;20221;-85
2022/07/06 08:07:08;;;;;;;2.25;1.15;;;17.80;98.80;;;;;;4987024;28;20215;-85
2022/07/06 08:09:35;;;;;;;2.90;1.00;;;17.90;98.20;;;;;;4986220;28;20217;-87
2022/07/06 08:12:05;;;;;;;2.33;0.73;;;18.20;97.70;;;;;;4998129;28;20207;-90
2022/07/06 08:14:33;;;;;;;1.70;1.10;;;17.90;96.20;;;;;;4990093;28;20219;-86
2022/07/06 08:17:00;;;;;;;1.52;0.73;;;17.80;96.60;;;;;;5003630;28;20204;-86
2022/07/06 08:19:28;;;;;;;4.90;1.55;;;17.80;97.10;;;;;;4983664;28;20225;-87
2022/07/06 08:21:56;;;;;;;2.45;1.00;;;18.10;97.20;;;;;;4986584;28;20196;-87
2022/07/06 08:24:24;;;;;;;2.28;1.13;;;18.10;96.30;;;;;;4985579;28;20290;-89
2022/07/06 08:26:52;;;;;;;3.13;0.85;;;17.80;95.50;;;;;;4993379;28;20205;-87
2022/07/06 08:29:21;;;;;;;1.77;0.80;;;17.80;94.90;;;;;;4984471;28;20224;-87
2022/07/06 08:31:50;;;;;;;2.08;0.50;;;17.80;94.60;;;;;;4998607;28;20213;-89
2022/07/06 08:34:17;;;;;;;1.08;0.88;;;17.90;94.00;;;;;;4978749;28;20221;-85
2022/07/06 08:36:45;;;;;;;1.60;0.82;;;17.90;93.60;;;;;;4974447;28;20206;-86
2022/07/06 08:39:17;;;;;;;1.67;0.60;;;17.90;93.90;;;;;;4991354;28;20216;-85
2022/07/06 08:41:47;;;;;;;2.30;1.25;;;17.90;93.80;;;;;;4994678;28;20201;-85
2022/07/06 08:44:15;;;;;;;1.08;0.77;;;18.00;93.80;;;;;;4982113;28;20201;-86
2022/07/06 08:46:45;;;;;;;1.05;0.85;;;17.90;94.70;;;;;;4981482;28;20201;-85
2022/07/06 08:49:16;;;;;;;2.00;0.88;;;18.00;94.60;;;;;;4979105;28;20220;-86
2022/07/06 08:51:45;;;;;;;4.45;1.23;;;18.00;95.10;;;;;;4979817;28;20197;-86
2022/07/06 08:54:13;;;;;;;2.78;1.10;;;18.00;95.10;;;;;;4987832;28;20205;-86
2022/07/06 08:56:41;;;;;;;4.63;1.05;;;18.20;94.80;;;;;;4997036;28;20204;-86
2022/07/06 08:59:10;;;;;;;2.40;1.27;;;18.30;94.60;;;;;;4972625;28;20220;-86
2022/07/06 09:01:40;;;;;;;3.17;0.90;;;18.20;94.50;;;;;;4976841;28;20200;-89
2022/07/06 09:04:10;;;;;;;1.00;0.90;;;18.10;94.70;;;;;;4994716;28;20216;-86
2022/07/06 09:06:38;;;;;;;2.15;0.90;;;18.10;95.30;;;;;;4996404;28;20205;-88
2022/07/06 09:09:07;;;;;;;2.50;1.40;;;18.20;95.60;;;;;;4990658;28;20217;-87
2022/07/06 09:11:37;;;;;;;4.78;1.48;;;18.30;95.40;;;;;;4995910;28;20201;-86
2022/07/06 09:14:05;;;;;;;1.92;0.70;;;18.10;94.80;;;;;;4981007;28;20206;-85
2022/07/06 09:16:33;;;;;;;3.10;0.98;;;17.90;94.50;;;;;;4982636;28;20205;-86
2022/07/06 09:19:01;;;;;;;3.00;1.10;;;18.00;95.00;;;;;;4993403;28;20706;-86
2022/07/06 09:21:32;;;;;;;2.83;0.80;;;18.10;93.90;;;;;;4984211;28;20205;-86
2022/07/06 09:24:02;;;;;;;2.55;0.98;;;18.20;94.10;;;;;;4982521;28;20201;-86
2022/07/06 09:26:32;;;;;;;1.60;0.90;;;18.40;93.70;;;;;;4984890;28;20209;-89
2022/07/06 09:29:00;;;;;;;2.58;1.05;;;18.60;93.40;;;;;;4985158;28;20228;-88
2022/07/06 09:31:28;;;;;;;0.73;0.60;;;18.50;93.40;;;;;;4985467;28;20216;-86
2022/07/06 09:33:57;;;;;;;4.93;0.90;;;18.40;92.80;;;;;;5000192;28;20201;-86
2022/07/06 09:36:46;;;;;;;1.98;0.77;;;18.50;93.00;;;;;;4982104;28;20208;-86
2022/07/06 09:39:21;;;;;;;1.77;0.80;;;18.50;93.10;;;;;;4995553;28;20228;-86
2022/07/06 09:41:50;;;;;;;1.65;0.80;;;18.50;93.90;;;;;;4995150;28;20217;-85
2022/07/06 09:44:26;;;;;;;4.05;1.10;;;18.90;92.90;;;;;;4982082;28;20223;-87
2022/07/06 09:46:56;;;;;;;1.88;0.95;;;18.80;92.40;;;;;;5001854;28;20201;-86
2022/07/06 09:49:23;;;;;;;1.85;0.73;;;18.70;93.10;;;;;;5001457;28;20220;-85
2022/07/06 09:51:55;;;;;;;3.53;0.70;;;18.90;93.00;;;;;;4982761;28;20189;-86
2022/07/06 09:54:23;;;;;;;0.98;0.73;;;19.00;92.70;;;;;;4984619;28;20871;-88
2022/07/06 09:56:52;;;;;;;1.52;0.80;;;18.90;92.30;;;;;;4978600;28;20209;-86
2022/07/06 09:59:22;;;;;;;3.17;1.48;;;18.80;92.70;;;;;;4984716;28;20224;-87
2022/07/06 10:01:54;;;;;;;1.77;0.65;;;18.70;92.70;;;;;;4983538;28;20196;-86
2022/07/06 10:04:22;;;;;;;3.72;0.93;;;18.70;93.10;;;;;;4980884;28;20206;-84
2022/07/06 10:06:52;;;;;;;3.03;0.70;;;18.60;93.70;;;;;;4987311;28;20189;-84
2022/07/06 10:09:22;;;;;;;1.65;0.90;;;18.80;92.90;;;;;;4989497;28;20229;-86
2022/07/06 10:11:52;;;;;;;1.83;1.08;;;18.80;92.10;;;;;;4987917;28;20193;-88
2022/07/06 10:14:22;;;;;;;2.83;1.00;;;18.80;92.40;;;;;;4983037;28;20206;-88
2022/07/06 10:16:50;;;;;;;1.30;0.68;;;18.90;91.80;;;;;;5004286;28;20199;-89
2022/07/06 10:19:21;;;;;;;1.00;0.70;;;19.10;91.90;;;;;;4990338;28;20209;-89
2022/07/06 10:21:49;;;;;;;1.33;0.82;;;19.30;92.10;;;;;;4992429;28;20221;-88
2022/07/06 10:24:20;;;;;;;1.85;0.80;;;18.90;92.20;;;;;;4990763;28;20185;-88
2022/07/06 10:26:49;;;;;;;0.43;0.40;;;19.10;92.20;;;;;;4990443;28;20233;-86
2022/07/06 10:29:16;;;;;;;1.02;0.60;;;18.80;92.80;;;;;;4982472;28;20226;-86
2022/07/06 10:31:46;;;;;;;2.50;0.93;;;19.20;92.30;;;;;;4997974;28;20217;-83
2022/07/06 10:34:17;;;;;;;2.75;0.85;;;19.00;92.20;;;;;;4989657;28;20209;-86
2022/07/06 10:36:51;;;;;;;2.75;0.90;;;18.90;92.40;;;;;;5001612;28;20210;-85
2022/07/06 10:42:51;;;;;;;2.22;0.80;;;19.10;91.10;;;;;;5001853;28;20211;-86
2022/07/06 10:45:52;;;;;;;3.78;1.08;;;19.30;91.60;;;;;;4970401;28;20193;-84
2022/07/06 10:48:22;;;;;;;0.90;0.68;;;18.90;91.00;;;;;;4992058;28;20221;-85
2022/07/06 10:50:54;;;;;;;1.92;0.90;;;18.70;91.90;;;;;;4997089;28;20217;-85
2022/07/06 10:53:26;;;;;;;2.08;1.13;;;19.00;91.60;;;;;;4997616;28;20201;-87
2022/07/06 10:55:57;;;;;;;2.42;1.08;;;19.20;91.00;;;;;;4997582;28;20195;-84
2022/07/06 10:58:48;;;;;;;2.47;1.00;;;19.10;91.00;;;;;;4984614;28;20244;-85
2022/07/06 11:01:16;;;;;;;1.77;0.90;;;19.20;91.30;;;;;;5000552;28;20206;-85
2022/07/06 11:03:45;;;;;;;2.22;0.60;;;19.10;90.60;;;;;;5004213;28;20670;-84
2022/07/06 11:06:17;;;;;;;3.33;0.90;;;19.20;90.40;;;;;;5008727;28;20201;-84
2022/07/06 11:08:54;;;;;;;1.75;1.00;;;19.40;90.40;;;;;;4986116;28;20231;-84
2022/07/06 11:11:25;;;;;;;2.55;0.77;;;19.40;90.10;;;;;;4982922;28;20184;-86
2022/07/06 11:14:01;;;;;;;1.60;0.80;;;19.40;88.50;;;;;;4992854;28;20203;-85
2022/07/06 11:16:33;;;;;;;2.65;0.68;;;19.30;89.60;;;;;;4990438;28;20204;-84
2022/07/06 11:19:07;;;;;;;5.75;1.20;;;19.30;89.00;;;;;;4987516;28;20218;-85
2022/07/06 11:21:45;;;;;;;1.65;0.80;;;19.20;89.40;;;;;;4997982;28;20201;-87
2022/07/06 11:24:15;;;;;;;1.13;0.70;;;19.30;90.10;;;;;;4989416;28;20219;-85
2022/07/06 11:26:47;;;;;;;1.30;0.70;;;19.50;89.60;;;;;;4992581;28;20198;-85
2022/07/06 11:29:17;;;;;;;3.40;1.00;;;19.50;89.20;;;;;;4991923;28;20221;-87
2022/07/06 11:31:46;;;;;;;1.20;0.70;;;19.80;87.80;;;;;;5003591;28;20211;-85
2022/07/06 11:34:18;;;;;;;1.42;0.82;;;19.90;86.00;;;;;;5007235;28;20201;-85
2022/07/06 11:36:47;;;;;;;2.08;0.88;;;19.80;84.70;;;;;;4998608;28;20210;-84
2022/07/06 11:39:15;;;;;;;1.25;0.82;;;20.00;84.60;;;;;;5004771;28;20229;-84
2022/07/06 11:41:44;;;;;;;2.13;0.90;;;20.30;85.10;;;;;;4990436;28;20201;-84
2022/07/06 11:44:12;;;;;;;3.00;0.80;;;20.50;82.80;;;;;;4986733;28;20216;-86
2022/07/06 11:46:40;;;;;;;3.20;0.65;;;20.40;82.20;;;;;;4991294;28;20201;-85
2022/07/06 11:49:09;;;;;;;2.00;0.98;;;20.50;82.20;;;;;;4998022;28;20226;-86
2022/07/06 11:51:39;;;;;;;4.68;0.70;;;20.70;81.20;;;;;;5002245;28;20201;-86
2022/07/06 11:54:10;;;;;;;2.38;0.70;;;20.70;79.90;;;;;;5001263;28;20201;-86
2022/07/06 11:56:38;;;;;;;2.15;1.10;;;20.60;78.80;;;;;;4989753;28;20206;-86
2022/07/06 11:59:09;;;;;;;1.52;0.70;;;20.50;79.30;;;;;;4991186;28;20213;-84
2022/07/06 12:01:41;;;;;;;1.63;0.80;;;20.40;80.00;;;;;;4996537;28;20205;-86
2022/07/06 12:04:09;;;;;;;1.65;0.80;;;20.40;80.80;;;;;;4979550;28;20208;-85
2022/07/06 12:06:36;;;;;;;1.00;0.60;;;20.40;81.50;;;;;;4984709;28;20208;-85
2022/07/06 12:09:06;;;;;;;1.75;0.65;;;20.60;80.50;;;;;;5005318;28;20231;-86
2022/07/06 12:11:35;;;;;;;2.72;0.70;;;20.50;79.60;;;;;;4985283;28;20239;-84
2022/07/06 12:14:13;;;;;;;4.07;0.82;;;20.60;79.70;;;;;;4989104;28;20201;-84
2022/07/06 12:16:42;;;;;;;1.48;0.95;;;20.70;79.70;;;;;;4985575;28;20207;-84
2022/07/06 12:19:11;;;;;;;1.77;0.60;;;21.10;79.30;;;;;;4989897;28;20221;-84
2022/07/06 12:21:44;;;;;;;1.25;0.60;;;21.00;77.20;;;;;;4999848;28;20212;-84
2022/07/06 12:24:17;;;;;;;3.35;0.88;;;21.60;75.70;;;;;;5008109;28;20200;-85
2022/07/06 12:26:45;;;;;;;2.60;0.70;;;21.80;73.40;;;;;;4991877;28;20211;-85
2022/07/06 12:29:14;;;;;;;1.70;0.55;;;22.10;71.50;;;;;;4987453;28;20233;-86
2022/07/06 12:31:45;;;;;;;1.52;0.68;;;21.90;66.80;;;;;;4994458;28;20220;-85
2022/07/06 12:34:19;;;;;;;1.40;0.60;;;21.70;66.60;;;;;;5003823;28;20193;-87
2022/07/06 12:37:16;;;;;;;3.20;0.60;;;21.20;69.30;;;;;;5010691;28;20203;-88
2022/07/06 12:39:46;;;;;;;1.15;0.43;;;21.60;68.60;;;;;;5001949;28;20220;-89
2022/07/06 12:42:15;;;;;;;2.47;0.63;;;21.50;67.10;;;;;;4999498;28;20195;-86
2022/07/06 12:44:45;;;;;;;3.10;0.85;;;21.30;67.60;;;;;;4991447;28;20209;-87
2022/07/06 12:47:17;;;;;;;0.98;0.40;;;21.10;69.40;;;;;;4987263;28;20215;-87
2022/07/06 12:49:46;;;;;;;3.42;1.35;;;21.10;68.90;;;;;;5004550;28;20227;-86
2022/07/06 12:52:15;;;;;;;2.58;1.00;;;21.20;68.60;;;;;;4999995;28;20196;-86
2022/07/06 12:54:45;;;;;;;1.10;0.77;;;21.40;67.80;;;;;;4997592;28;20208;-88
2022/07/06 12:57:15;;;;;;;3.13;0.70;;;21.50;65.90;;;;;;4991813;28;20209;-87
2022/07/06 12:59:44;;;;;;;1.45;0.70;;;21.40;65.90;;;;;;5002694;28;20231;-86
2022/07/06 13:02:23;;;;;;;0.60;0.60;;;21.50;66.70;;;;;;5008123;28;20205;-86
2022/07/06 13:04:59;;;;;;;1.33;0.70;;;21.80;67.40;;;;;;4991958;28;20217;-87
2022/07/06 13:07:27;;;;;;;1.00;0.60;;;21.90;67.00;;;;;;4987447;28;20201;-86
2022/07/06 13:09:56;;;;;;;1.20;0.68;;;22.00;66.70;;;;;;4995991;28;20228;-86
2022/07/06 13:12:23;;;;;;;0.95;0.70;;;22.10;65.50;;;;;;4985384;28;20220;-87
2022/07/06 13:14:52;;;;;;;2.22;0.82;;;21.90;65.70;;;;;;5008948;28;20201;-87
2022/07/06 13:17:21;;;;;;;3.33;0.77;;;21.50;63.50;;;;;;4985364;28;20211;-87
2022/07/06 13:19:49;;;;;;;3.42;0.80;;;21.50;65.70;;;;;;4984570;28;20228;-87